sensor_id;sensor_type;location;lat;lon;timestamp;P1;durP1;ratioP1;P2;durP2;ratioP2
47239;SDS011;32978;53.586;10.052;2022-07-23T00:03:03;2.97;;;0.90;;
47239;SDS011;32978;53.586;10.052;2022-07-23T00:07:59;4.68;;;1.17;;
47239;SDS011;32978;53.586;10.052;2022-07-23T00:12:55;4.40;;;0.93;;
47239;SDS011;32978;53.586;10.052;2022-07-23T00:17:52;3.85;;;1.00;;
47239;SDS011;32978;53.586;10.052;2022-07-23T00:22:49;9.27;;;1.73;;
47239;SDS011;32978;53.586;10.052;2022-07-23T00:27:46;2.55;;;0.98;;
47239;SDS011;32978;53.586;10.052;2022-07-23T00:32:50;5.43;;;0.88;;
47239;SDS011;32978;53.586;10.052;2022-07-23T00:37:52;3.28;;;1.02;;
47239;SDS011;32978;53.586;10.052;2022-07-23T00:42:48;3.30;;;0.70;;
47239;SDS011;32978;53.586;10.052;2022-07-23T00:47:45;3.60;;;0.80;;
47239;SDS011;32978;53.586;10.052;2022-07-23T00:52:41;3.40;;;1.00;;
47239;SDS011;32978;53.586;10.052;2022-07-23T00:57:37;3.10;;;0.80;;
47239;SDS011;32978;53.586;10.052;2022-07-23T01:02:34;3.17;;;0.73;;
47239;SDS011;32978;53.586;10.052;2022-07-23T01:07:30;4.00;;;0.82;;
47239;SDS011;32978;53.586;10.052;2022-07-23T01:12:27;6.72;;;1.10;;
47239;SDS011;32978;53.586;10.052;2022-07-23T01:17:23;3.30;;;1.05;;
47239;SDS011;32978;53.586;10.052;2022-07-23T01:22:19;1.98;;;0.77;;
47239;SDS011;32978;53.586;10.052;2022-07-23T01:27:16;11.70;;;1.85;;
47239;SDS011;32978;53.586;10.052;2022-07-23T01:32:15;3.53;;;0.82;;
47239;SDS011;32978;53.586;10.052;2022-07-23T01:37:11;4.43;;;0.85;;
47239;SDS011;32978;53.586;10.052;2022-07-23T01:42:07;6.38;;;1.70;;
47239;SDS011;32978;53.586;10.052;2022-07-23T01:47:04;2.88;;;0.98;;
47239;SDS011;32978;53.586;10.052;2022-07-23T01:52:00;4.07;;;1.08;;
47239;SDS011;32978;53.586;10.052;2022-07-23T01:56:57;3.15;;;0.90;;
47239;SDS011;32978;53.586;10.052;2022-07-23T02:01:53;2.95;;;0.70;;
47239;SDS011;32978;53.586;10.052;2022-07-23T02:06:50;3.85;;;0.85;;
47239;SDS011;32978;53.586;10.052;2022-07-23T02:11:46;2.15;;;0.85;;
47239;SDS011;32978;53.586;10.052;2022-07-23T02:16:42;3.08;;;0.60;;
47239;SDS011;32978;53.586;10.052;2022-07-23T02:21:39;2.63;;;0.80;;
47239;SDS011;32978;53.586;10.052;2022-07-23T02:26:35;3.55;;;1.30;;
47239;SDS011;32978;53.586;10.052;2022-07-23T02:31:32;2.65;;;0.90;;
47239;SDS011;32978;53.586;10.052;2022-07-23T02:36:28;2.88;;;1.00;;
47239;SDS011;32978;53.586;10.052;2022-07-23T02:41:25;5.70;;;1.13;;
47239;SDS011;32978;53.586;10.052;2022-07-23T02:46:21;2.67;;;0.70;;
47239;SDS011;32978;53.586;10.052;2022-07-23T02:51:17;8.57;;;1.30;;
47239;SDS011;32978;53.586;10.052;2022-07-23T02:56:14;3.10;;;0.82;;
47239;SDS011;32978;53.586;10.052;2022-07-23T03:01:10;8.57;;;1.48;;
47239;SDS011;32978;53.586;10.052;2022-07-23T03:06:06;2.85;;;0.70;;
47239;SDS011;32978;53.586;10.052;2022-07-23T03:11:03;2.28;;;0.60;;
47239;SDS011;32978;53.586;10.052;2022-07-23T03:15:59;3.50;;;0.80;;
47239;SDS011;32978;53.586;10.052;2022-07-23T03:20:55;3.05;;;0.95;;
47239;SDS011;32978;53.586;10.052;2022-07-23T03:25:52;4.68;;;1.35;;
47239;SDS011;32978;53.586;10.052;2022-07-23T03:30:50;2.80;;;1.13;;
47239;SDS011;32978;53.586;10.052;2022-07-23T03:35:46;2.78;;;1.00;;
47239;SDS011;32978;53.586;10.052;2022-07-23T03:40:43;6.50;;;1.25;;
47239;SDS011;32978;53.586;10.052;2022-07-23T03:45:39;3.38;;;0.68;;
47239;SDS011;32978;53.586;10.052;2022-07-23T03:50:36;4.65;;;1.40;;
47239;SDS011;32978;53.586;10.052;2022-07-23T03:55:33;1.15;;;0.65;;
47239;SDS011;32978;53.586;10.052;2022-07-23T04:00:29;6.15;;;1.08;;
47239;SDS011;32978;53.586;10.052;2022-07-23T04:05:26;3.72;;;1.05;;
47239;SDS011;32978;53.586;10.052;2022-07-23T04:10:22;2.97;;;0.93;;
47239;SDS011;32978;53.586;10.052;2022-07-23T04:15:19;6.55;;;1.42;;
47239;SDS011;32978;53.586;10.052;2022-07-23T04:20:15;1.67;;;0.77;;
47239;SDS011;32978;53.586;10.052;2022-07-23T04:25:12;4.97;;;1.25;;
47239;SDS011;32978;53.586;10.052;2022-07-23T04:30:09;3.10;;;0.90;;
47239;SDS011;32978;53.586;10.052;2022-07-23T04:35:06;2.97;;;1.33;;
47239;SDS011;32978;53.586;10.052;2022-07-23T04:40:02;6.20;;;1.08;;
47239;SDS011;32978;53.586;10.052;2022-07-23T04:44:59;3.65;;;0.80;;
47239;SDS011;32978;53.586;10.052;2022-07-23T04:49:55;5.00;;;1.10;;
47239;SDS011;32978;53.586;10.052;2022-07-23T04:54:52;6.03;;;1.45;;
47239;SDS011;32978;53.586;10.052;2022-07-23T04:59:48;5.50;;;1.05;;
47239;SDS011;32978;53.586;10.052;2022-07-23T05:04:44;3.20;;;1.10;;
47239;SDS011;32978;53.586;10.052;2022-07-23T05:09:41;5.10;;;1.42;;
47239;SDS011;32978;53.586;10.052;2022-07-23T05:14:37;3.10;;;1.27;;
47239;SDS011;32978;53.586;10.052;2022-07-23T05:19:34;6.03;;;1.05;;
47239;SDS011;32978;53.586;10.052;2022-07-23T05:24:30;6.40;;;1.23;;
47239;SDS011;32978;53.586;10.052;2022-07-23T05:29:26;2.50;;;0.82;;
47239;SDS011;32978;53.586;10.052;2022-07-23T05:34:23;5.68;;;0.75;;
47239;SDS011;32978;53.586;10.052;2022-07-23T05:39:19;3.80;;;1.00;;
47239;SDS011;32978;53.586;10.052;2022-07-23T05:44:15;4.07;;;1.20;;
47239;SDS011;32978;53.586;10.052;2022-07-23T05:49:12;3.33;;;1.13;;
47239;SDS011;32978;53.586;10.052;2022-07-23T05:54:08;2.25;;;0.75;;
47239;SDS011;32978;53.586;10.052;2022-07-23T05:59:05;1.98;;;0.60;;
47239;SDS011;32978;53.586;10.052;2022-07-23T06:04:02;3.33;;;0.75;;
47239;SDS011;32978;53.586;10.052;2022-07-23T06:08:58;4.10;;;1.35;;
47239;SDS011;32978;53.586;10.052;2022-07-23T06:13:55;2.25;;;0.63;;
47239;SDS011;32978;53.586;10.052;2022-07-23T06:18:51;3.08;;;1.02;;
47239;SDS011;32978;53.586;10.052;2022-07-23T06:23:48;2.35;;;0.60;;
47239;SDS011;32978;53.586;10.052;2022-07-23T06:28:44;4.78;;;0.73;;
47239;SDS011;32978;53.586;10.052;2022-07-23T06:33:40;3.33;;;0.98;;
47239;SDS011;32978;53.586;10.052;2022-07-23T06:38:37;4.85;;;1.15;;
47239;SDS011;32978;53.586;10.052;2022-07-23T06:43:33;4.80;;;1.10;;
47239;SDS011;32978;53.586;10.052;2022-07-23T06:48:29;2.83;;;0.90;;
47239;SDS011;32978;53.586;10.052;2022-07-23T06:53:25;3.33;;;1.27;;
47239;SDS011;32978;53.586;10.052;2022-07-23T06:58:22;1.95;;;0.65;;
47239;SDS011;32978;53.586;10.052;2022-07-23T07:03:18;2.78;;;1.00;;
47239;SDS011;32978;53.586;10.052;2022-07-23T07:08:15;2.22;;;0.68;;
47239;SDS011;32978;53.586;10.052;2022-07-23T07:13:12;2.55;;;0.70;;
47239;SDS011;32978;53.586;10.052;2022-07-23T07:18:08;2.67;;;0.70;;
47239;SDS011;32978;53.586;10.052;2022-07-23T07:23:04;1.70;;;0.70;;
47239;SDS011;32978;53.586;10.052;2022-07-23T07:28:01;8.43;;;0.95;;
47239;SDS011;32978;53.586;10.052;2022-07-23T07:32:58;2.75;;;0.63;;
47239;SDS011;32978;53.586;10.052;2022-07-23T07:37:54;2.63;;;0.85;;
47239;SDS011;32978;53.586;10.052;2022-07-23T07:42:51;2.25;;;0.95;;
47239;SDS011;32978;53.586;10.052;2022-07-23T07:47:48;3.92;;;0.90;;
47239;SDS011;32978;53.586;10.052;2022-07-23T07:52:44;8.95;;;1.33;;
47239;SDS011;32978;53.586;10.052;2022-07-23T07:57:40;1.63;;;0.65;;
47239;SDS011;32978;53.586;10.052;2022-07-23T08:02:45;3.10;;;0.80;;
47239;SDS011;32978;53.586;10.052;2022-07-23T08:07:41;2.78;;;0.60;;
47239;SDS011;32978;53.586;10.052;2022-07-23T08:12:38;1.92;;;0.88;;
47239;SDS011;32978;53.586;10.052;2022-07-23T08:17:35;2.70;;;0.82;;
47239;SDS011;32978;53.586;10.052;2022-07-23T08:22:44;4.25;;;1.08;;
47239;SDS011;32978;53.586;10.052;2022-07-23T08:27:41;2.55;;;0.60;;
47239;SDS011;32978;53.586;10.052;2022-07-23T08:37:52;4.88;;;0.90;;
47239;SDS011;32978;53.586;10.052;2022-07-23T08:42:49;1.33;;;0.60;;
47239;SDS011;32978;53.586;10.052;2022-07-23T08:47:49;2.20;;;0.60;;
47239;SDS011;32978;53.586;10.052;2022-07-23T08:57:46;2.05;;;0.55;;
47239;SDS011;32978;53.586;10.052;2022-07-23T09:02:44;1.55;;;0.40;;
47239;SDS011;32978;53.586;10.052;2022-07-23T09:12:56;2.10;;;0.88;;
47239;SDS011;32978;53.586;10.052;2022-07-23T09:17:52;1.95;;;0.70;;
47239;SDS011;32978;53.586;10.052;2022-07-23T09:22:49;1.25;;;0.80;;
47239;SDS011;32978;53.586;10.052;2022-07-23T09:38:04;2.15;;;0.75;;
47239;SDS011;32978;53.586;10.052;2022-07-23T09:43:00;2.83;;;1.05;;
47239;SDS011;32978;53.586;10.052;2022-07-23T09:48:12;4.03;;;1.20;;
47239;SDS011;32978;53.586;10.052;2022-07-23T09:53:09;2.47;;;1.10;;
47239;SDS011;32978;53.586;10.052;2022-07-23T09:58:06;2.70;;;0.73;;
47239;SDS011;32978;53.586;10.052;2022-07-23T10:03:07;2.92;;;1.30;;
47239;SDS011;32978;53.586;10.052;2022-07-23T10:08:04;2.47;;;0.85;;
47239;SDS011;32978;53.586;10.052;2022-07-23T10:13:02;2.50;;;0.90;;
47239;SDS011;32978;53.586;10.052;2022-07-23T10:18:17;1.85;;;1.02;;
47239;SDS011;32978;53.586;10.052;2022-07-23T10:28:55;1.35;;;0.77;;
47239;SDS011;32978;53.586;10.052;2022-07-23T10:33:32;1.88;;;0.90;;
47239;SDS011;32978;53.586;10.052;2022-07-23T10:43:30;3.63;;;1.45;;
47239;SDS011;32978;53.586;10.052;2022-07-23T10:48:27;1.88;;;1.10;;
47239;SDS011;32978;53.586;10.052;2022-07-23T10:53:23;2.20;;;1.20;;
47239;SDS011;32978;53.586;10.052;2022-07-23T10:58:32;2.05;;;1.20;;
47239;SDS011;32978;53.586;10.052;2022-07-23T11:03:39;2.97;;;1.42;;
47239;SDS011;32978;53.586;10.052;2022-07-23T11:08:35;4.10;;;1.55;;
47239;SDS011;32978;53.586;10.052;2022-07-23T11:13:41;2.55;;;1.40;;
47239;SDS011;32978;53.586;10.052;2022-07-23T11:28:41;1.98;;;1.10;;
47239;SDS011;32978;53.586;10.052;2022-07-23T11:33:37;1.20;;;0.90;;
47239;SDS011;32978;53.586;10.052;2022-07-23T11:38:34;2.58;;;1.00;;
47239;SDS011;32978;53.586;10.052;2022-07-23T11:43:32;1.77;;;0.93;;
47239;SDS011;32978;53.586;10.052;2022-07-23T11:48:32;2.15;;;1.10;;
47239;SDS011;32978;53.586;10.052;2022-07-23T11:53:36;2.55;;;1.25;;
47239;SDS011;32978;53.586;10.052;2022-07-23T11:58:32;2.88;;;1.30;;
47239;SDS011;32978;53.586;10.052;2022-07-23T12:03:28;2.50;;;1.40;;
47239;SDS011;32978;53.586;10.052;2022-07-23T12:08:25;3.88;;;1.27;;
47239;SDS011;32978;53.586;10.052;2022-07-23T12:13:21;4.22;;;1.70;;
47239;SDS011;32978;53.586;10.052;2022-07-23T12:18:20;3.67;;;1.45;;
47239;SDS011;32978;53.586;10.052;2022-07-23T12:23:18;3.85;;;1.58;;
47239;SDS011;32978;53.586;10.052;2022-07-23T12:28:17;3.45;;;1.40;;
47239;SDS011;32978;53.586;10.052;2022-07-23T12:33:21;3.28;;;1.33;;
47239;SDS011;32978;53.586;10.052;2022-07-23T12:38:19;3.30;;;1.30;;
47239;SDS011;32978;53.586;10.052;2022-07-23T12:53:15;3.05;;;1.60;;
47239;SDS011;32978;53.586;10.052;2022-07-23T12:58:19;5.20;;;1.60;;
47239;SDS011;32978;53.586;10.052;2022-07-23T13:08:26;3.63;;;1.70;;
47239;SDS011;32978;53.586;10.052;2022-07-23T13:13:23;5.60;;;2.90;;
47239;SDS011;32978;53.586;10.052;2022-07-23T13:23:21;3.00;;;1.27;;
47239;SDS011;32978;53.586;10.052;2022-07-23T13:28:21;4.18;;;1.50;;
47239;SDS011;32978;53.586;10.052;2022-07-23T13:33:18;5.15;;;1.73;;
47239;SDS011;32978;53.586;10.052;2022-07-23T13:38:16;3.60;;;1.55;;
47239;SDS011;32978;53.586;10.052;2022-07-23T13:43:14;3.05;;;2.22;;
47239;SDS011;32978;53.586;10.052;2022-07-23T13:48:11;3.22;;;1.50;;
47239;SDS011;32978;53.586;10.052;2022-07-23T13:53:08;2.95;;;1.40;;
47239;SDS011;32978;53.586;10.052;2022-07-23T13:58:08;15.10;;;11.00;;
47239;SDS011;32978;53.586;10.052;2022-07-23T14:03:05;39.85;;;27.02;;
47239;SDS011;32978;53.586;10.052;2022-07-23T14:08:02;17.40;;;12.13;;
47239;SDS011;32978;53.586;10.052;2022-07-23T14:12:59;6.43;;;2.95;;
47239;SDS011;32978;53.586;10.052;2022-07-23T14:17:55;8.50;;;5.00;;
47239;SDS011;32978;53.586;10.052;2022-07-23T14:22:52;11.48;;;6.57;;
47239;SDS011;32978;53.586;10.052;2022-07-23T14:27:50;4.68;;;1.88;;
47239;SDS011;32978;53.586;10.052;2022-07-23T14:32:47;2.50;;;1.23;;
47239;SDS011;32978;53.586;10.052;2022-07-23T14:37:43;3.60;;;1.40;;
47239;SDS011;32978;53.586;10.052;2022-07-23T14:42:40;2.58;;;1.20;;
47239;SDS011;32978;53.586;10.052;2022-07-23T14:47:36;3.92;;;2.03;;
47239;SDS011;32978;53.586;10.052;2022-07-23T14:52:32;15.35;;;8.15;;
47239;SDS011;32978;53.586;10.052;2022-07-23T14:57:29;5.72;;;3.10;;
47239;SDS011;32978;53.586;10.052;2022-07-23T15:02:25;4.32;;;1.63;;
47239;SDS011;32978;53.586;10.052;2022-07-23T15:07:22;5.22;;;2.30;;
47239;SDS011;32978;53.586;10.052;2022-07-23T15:12:22;4.15;;;1.58;;
47239;SDS011;32978;53.586;10.052;2022-07-23T15:17:20;2.90;;;1.60;;
47239;SDS011;32978;53.586;10.052;2022-07-23T15:22:17;5.85;;;1.90;;
47239;SDS011;32978;53.586;10.052;2022-07-23T15:27:13;2.63;;;1.60;;
47239;SDS011;32978;53.586;10.052;2022-07-23T15:32:09;5.43;;;1.85;;
47239;SDS011;32978;53.586;10.052;2022-07-23T15:37:08;7.05;;;3.55;;
47239;SDS011;32978;53.586;10.052;2022-07-23T15:42:09;7.67;;;4.53;;
47239;SDS011;32978;53.586;10.052;2022-07-23T15:47:14;11.90;;;6.30;;
47239;SDS011;32978;53.586;10.052;2022-07-23T15:52:11;9.35;;;6.22;;
47239;SDS011;32978;53.586;10.052;2022-07-23T15:57:07;4.65;;;2.22;;
47239;SDS011;32978;53.586;10.052;2022-07-23T16:02:04;2.67;;;1.65;;
47239;SDS011;32978;53.586;10.052;2022-07-23T16:07:01;4.10;;;2.20;;
47239;SDS011;32978;53.586;10.052;2022-07-23T16:11:57;3.75;;;1.90;;
47239;SDS011;32978;53.586;10.052;2022-07-23T16:16:53;2.85;;;1.70;;
47239;SDS011;32978;53.586;10.052;2022-07-23T16:21:49;2.55;;;1.80;;
47239;SDS011;32978;53.586;10.052;2022-07-23T16:26:46;4.25;;;1.88;;
47239;SDS011;32978;53.586;10.052;2022-07-23T16:31:42;3.20;;;1.70;;
47239;SDS011;32978;53.586;10.052;2022-07-23T16:36:38;3.08;;;1.88;;
47239;SDS011;32978;53.586;10.052;2022-07-23T16:41:35;3.15;;;1.77;;
47239;SDS011;32978;53.586;10.052;2022-07-23T16:46:32;3.40;;;1.88;;
47239;SDS011;32978;53.586;10.052;2022-07-23T16:51:28;5.03;;;2.70;;
47239;SDS011;32978;53.586;10.052;2022-07-23T16:56:25;3.47;;;2.08;;
47239;SDS011;32978;53.586;10.052;2022-07-23T17:01:21;3.42;;;1.90;;
47239;SDS011;32978;53.586;10.052;2022-07-23T17:06:17;2.30;;;1.80;;
47239;SDS011;32978;53.586;10.052;2022-07-23T17:11:14;3.40;;;2.17;;
47239;SDS011;32978;53.586;10.052;2022-07-23T17:16:10;4.68;;;2.20;;
47239;SDS011;32978;53.586;10.052;2022-07-23T17:21:06;3.20;;;2.15;;
47239;SDS011;32978;53.586;10.052;2022-07-23T17:26:03;4.05;;;2.00;;
47239;SDS011;32978;53.586;10.052;2022-07-23T17:30:59;5.45;;;2.70;;
47239;SDS011;32978;53.586;10.052;2022-07-23T17:35:55;3.10;;;2.10;;
47239;SDS011;32978;53.586;10.052;2022-07-23T17:40:52;4.38;;;2.28;;
47239;SDS011;32978;53.586;10.052;2022-07-23T17:45:48;4.82;;;2.92;;
47239;SDS011;32978;53.586;10.052;2022-07-23T17:50:44;5.03;;;2.30;;
47239;SDS011;32978;53.586;10.052;2022-07-23T17:55:41;4.20;;;2.35;;
47239;SDS011;32978;53.586;10.052;2022-07-23T18:00:37;3.58;;;2.15;;
47239;SDS011;32978;53.586;10.052;2022-07-23T18:05:34;4.75;;;2.13;;
47239;SDS011;32978;53.586;10.052;2022-07-23T18:10:30;3.17;;;1.90;;
47239;SDS011;32978;53.586;10.052;2022-07-23T18:15:27;6.32;;;2.60;;
47239;SDS011;32978;53.586;10.052;2022-07-23T18:20:23;3.45;;;1.92;;
47239;SDS011;32978;53.586;10.052;2022-07-23T18:25:20;5.22;;;1.73;;
47239;SDS011;32978;53.586;10.052;2022-07-23T18:30:20;5.57;;;2.10;;
47239;SDS011;32978;53.586;10.052;2022-07-23T18:40:19;5.10;;;1.85;;
47239;SDS011;32978;53.586;10.052;2022-07-23T18:45:15;3.85;;;2.08;;
47239;SDS011;32978;53.586;10.052;2022-07-23T18:50:12;4.80;;;2.30;;
47239;SDS011;32978;53.586;10.052;2022-07-23T18:55:08;3.35;;;1.90;;
47239;SDS011;32978;53.586;10.052;2022-07-23T19:00:05;4.00;;;2.13;;
47239;SDS011;32978;53.586;10.052;2022-07-23T19:05:02;3.85;;;2.35;;
47239;SDS011;32978;53.586;10.052;2022-07-23T19:09:59;4.63;;;2.13;;
47239;SDS011;32978;53.586;10.052;2022-07-23T19:14:56;3.45;;;1.70;;
47239;SDS011;32978;53.586;10.052;2022-07-23T19:19:52;3.95;;;2.28;;
47239;SDS011;32978;53.586;10.052;2022-07-23T19:24:49;5.88;;;2.60;;
47239;SDS011;32978;53.586;10.052;2022-07-23T19:29:46;3.28;;;1.73;;
47239;SDS011;32978;53.586;10.052;2022-07-23T19:34:42;5.38;;;1.90;;
47239;SDS011;32978;53.586;10.052;2022-07-23T19:39:39;5.50;;;2.10;;
47239;SDS011;32978;53.586;10.052;2022-07-23T19:44:35;3.58;;;1.80;;
47239;SDS011;32978;53.586;10.052;2022-07-23T19:49:32;4.03;;;2.10;;
47239;SDS011;32978;53.586;10.052;2022-07-23T19:54:28;6.35;;;2.70;;
47239;SDS011;32978;53.586;10.052;2022-07-23T19:59:24;5.55;;;2.25;;
47239;SDS011;32978;53.586;10.052;2022-07-23T20:04:21;4.55;;;2.00;;
47239;SDS011;32978;53.586;10.052;2022-07-23T20:09:17;6.03;;;1.85;;
47239;SDS011;32978;53.586;10.052;2022-07-23T20:14:14;4.75;;;1.90;;
47239;SDS011;32978;53.586;10.052;2022-07-23T20:19:10;6.53;;;3.10;;
47239;SDS011;32978;53.586;10.052;2022-07-23T20:24:06;3.33;;;2.08;;
47239;SDS011;32978;53.586;10.052;2022-07-23T20:29:06;3.47;;;1.77;;
47239;SDS011;32978;53.586;10.052;2022-07-23T20:34:03;5.18;;;2.55;;
47239;SDS011;32978;53.586;10.052;2022-07-23T20:39:00;4.90;;;2.45;;
47239;SDS011;32978;53.586;10.052;2022-07-23T20:43:59;5.03;;;2.53;;
47239;SDS011;32978;53.586;10.052;2022-07-23T20:48:56;5.00;;;2.22;;
47239;SDS011;32978;53.586;10.052;2022-07-23T20:53:52;4.95;;;1.83;;
47239;SDS011;32978;53.586;10.052;2022-07-23T20:58:48;4.88;;;2.05;;
47239;SDS011;32978;53.586;10.052;2022-07-23T21:03:47;4.38;;;1.58;;
47239;SDS011;32978;53.586;10.052;2022-07-23T21:08:43;4.60;;;2.58;;
47239;SDS011;32978;53.586;10.052;2022-07-23T21:13:39;4.82;;;2.35;;
47239;SDS011;32978;53.586;10.052;2022-07-23T21:18:35;4.15;;;2.10;;
47239;SDS011;32978;53.586;10.052;2022-07-23T21:23:32;4.80;;;2.05;;
47239;SDS011;32978;53.586;10.052;2022-07-23T21:28:32;6.32;;;2.05;;
47239;SDS011;32978;53.586;10.052;2022-07-23T21:33:28;4.45;;;2.50;;
47239;SDS011;32978;53.586;10.052;2022-07-23T21:38:24;5.93;;;2.05;;
47239;SDS011;32978;53.586;10.052;2022-07-23T21:43:21;3.85;;;1.85;;
47239;SDS011;32978;53.586;10.052;2022-07-23T21:48:20;4.13;;;1.90;;
47239;SDS011;32978;53.586;10.052;2022-07-23T21:53:18;4.82;;;1.88;;
47239;SDS011;32978;53.586;10.052;2022-07-23T21:58:14;4.85;;;1.88;;
47239;SDS011;32978;53.586;10.052;2022-07-23T22:03:10;3.75;;;2.03;;
47239;SDS011;32978;53.586;10.052;2022-07-23T22:08:07;3.63;;;1.88;;
47239;SDS011;32978;53.586;10.052;2022-07-23T22:13:03;5.22;;;2.22;;
47239;SDS011;32978;53.586;10.052;2022-07-23T22:18:00;5.68;;;2.00;;
47239;SDS011;32978;53.586;10.052;2022-07-23T22:22:56;4.82;;;2.35;;
47239;SDS011;32978;53.586;10.052;2022-07-23T22:27:52;9.63;;;2.55;;
47239;SDS011;32978;53.586;10.052;2022-07-23T22:32:48;6.10;;;2.72;;
47239;SDS011;32978;53.586;10.052;2022-07-23T22:37:45;10.77;;;5.18;;
47239;SDS011;32978;53.586;10.052;2022-07-23T22:42:42;7.93;;;4.30;;
47239;SDS011;32978;53.586;10.052;2022-07-23T22:47:38;7.32;;;3.05;;
47239;SDS011;32978;53.586;10.052;2022-07-23T22:52:35;7.28;;;3.80;;
47239;SDS011;32978;53.586;10.052;2022-07-23T22:57:31;7.28;;;3.25;;
47239;SDS011;32978;53.586;10.052;2022-07-23T23:02:27;9.07;;;3.33;;
47239;SDS011;32978;53.586;10.052;2022-07-23T23:07:24;5.82;;;2.97;;
47239;SDS011;32978;53.586;10.052;2022-07-23T23:12:20;5.82;;;2.95;;
47239;SDS011;32978;53.586;10.052;2022-07-23T23:17:17;6.15;;;2.90;;
47239;SDS011;32978;53.586;10.052;2022-07-23T23:22:13;6.03;;;2.78;;
47239;SDS011;32978;53.586;10.052;2022-07-23T23:27:09;4.35;;;2.60;;
47239;SDS011;32978;53.586;10.052;2022-07-23T23:32:06;5.20;;;2.42;;
47239;SDS011;32978;53.586;10.052;2022-07-23T23:37:03;7.97;;;2.80;;
47239;SDS011;32978;53.586;10.052;2022-07-23T23:42:00;4.78;;;2.53;;
47239;SDS011;32978;53.586;10.052;2022-07-23T23:46:56;7.68;;;2.60;;
47239;SDS011;32978;53.586;10.052;2022-07-23T23:51:52;6.55;;;2.78;;
47239;SDS011;32978;53.586;10.052;2022-07-23T23:56:48;4.40;;;2.20;;
